Domov               UVHVVR             MKGP            O straneh              
ZDRAVSTVENO VARSTVO RASTLIN
  MREŽA AGROMET. POSTAJ
 ► PROGNOSTIČNA OBVESTILA
AGROMETEOROLOŠKI PODATKI -
ARSO
OBVLADOVANJE TVEGANJ ZARADI
NEUGODNIH VREMENSKIH RAZMER
  ► NARAVNE NESREČE
  ► SUŠA/MOČA
  ► NAMAKANJE
  ► ŽLED (gozdarstvo)
KARTOGRAFSKI PRIKAZI
SPLETNE POVEZAVE
PROJEKTI IN PUBLIKACIJE

AGROMETEOROLOŠKA MREŽA: VREMENSKE POSTAJE IN FENOLOŠKA OPAZOVANJA

Pregled podatkov za lokacijo Litmerk, meteorološka postaja 27388

Pregled senzorjev na lokaciji

ID Ime Zadnja
vrednost
Datum
zadnje
spremembe
Tip
senzorja
1457 Omočenost lista (U) 0 U 21.5.2018 12:00 A730WET
953 Padavine (mm) 0 mm 21.5.2018 12:00 Generic 0.2 mm
1459 Relativna vlaga 2 m (% RH) 62,78 % RH 21.5.2018 12:00 Generic 0 - 100 %
1458 Temperatura 2 m (°C) 20,27 °C 21.5.2018 12:00 Generic -40 - +60 °C

Pregled podatkov zadnjih 24 ur

Zap.
št.
Datum in čas Litmerk
Omočenost
lista
Padavine Relativna
vlaga
2
m
Temperatura
2
m
1 21.5.2018 12:30
2 21.5.2018 12:00
3 21.5.2018 11:30
4 21.5.2018 11:00 0 0 62,8 20,3
5 21.5.2018 10:30 0 0 65,7 19,6
6 21.5.2018 10:00 0 0 69,6 18,7
7 21.5.2018 09:30 0 0 67,1 18,5
8 21.5.2018 09:00 0 0 69,2 17,8
9 21.5.2018 08:30 0 0 69 17,4
10 21.5.2018 08:00 0 0 73,2 16,2
11 21.5.2018 07:30 0 0 76,5 15,4
12 21.5.2018 07:00 0 0 82,9 14,6
13 21.5.2018 06:30 0 0 85,5 13,8
14 21.5.2018 06:00 10 0 89,4 13,1
15 21.5.2018 05:30 10 0 93,7 12,3
16 21.5.2018 05:00 10 0 96,2 12,1
17 21.5.2018 04:30 10 0 96 12,1
18 21.5.2018 04:00 10 0 93,9 12,5
19 21.5.2018 03:30 10 0 94,2 12,4
20 21.5.2018 03:00 10 0 95,7 12,6
21 21.5.2018 02:30 10 0 94,6 12,7
22 21.5.2018 02:00 10 0 94,2 12,8
23 21.5.2018 01:30 10 0 93,8 13
24 21.5.2018 01:00 10 0 92,5 13,2
25 21.5.2018 00:30 10 0 90,6 13,4
26 21.5.2018 00:00 10 0 89,1 13,7
27 20.5.2018 23:30 10 0 85,8 13,9
28 20.5.2018 23:00 2 0 84,7 14,4
29 20.5.2018 22:30 1 0 80,6 15
30 20.5.2018 22:00 1 0 76,7 15,2
31 20.5.2018 21:30 1 0 80,5 15,4
32 20.5.2018 21:00 0 0 77,9 16,1
33 20.5.2018 20:30 1 0 78,7 16,1
34 20.5.2018 20:00 1 0 81,1 16,3
35 20.5.2018 19:30 1 0 81,6 16,9
36 20.5.2018 19:00 0 0 76,9 17,8
37 20.5.2018 18:30 0 0 72,7 18,9
38 20.5.2018 18:00 0 0 69,5 19,8
39 20.5.2018 17:30 0 0 67 19,2
40 20.5.2018 17:00 0 0 65,7 20,6
41 20.5.2018 16:30 0 0 64,3 20,9
42 20.5.2018 16:00 0 0 64,7 20,5
43 20.5.2018 15:30 0 0 59,5 20,7
44 20.5.2018 15:00 2 0 72,1 18,4
45 20.5.2018 14:30 9 1,2 80,9 18
46 20.5.2018 14:00 2 0 69,7 20,9
47 20.5.2018 13:30 0 0 65,9 20,7
48 20.5.2018 13:00 0 0 59,3 20,3
© 2011 Ministrstvo za kmetijstvo, gozdarstvo in prehrano. Vse pravice pridržane.